sensor_id;sensor_type;location;lat;lon;timestamp;pressure;altitude;pressure_sealevel;temperature;humidity
10869;BME280;62667;48.698;8.762;2024-03-02T00:00:14;95067.56;;;4.39;76.50
10869;BME280;62667;48.698;8.762;2024-03-02T00:02:41;95064.09;;;4.42;76.16
10869;BME280;62667;48.698;8.762;2024-03-02T00:05:08;95071.41;;;4.38;76.52
10869;BME280;62667;48.698;8.762;2024-03-02T00:07:37;95067.09;;;4.47;76.96
10869;BME280;62667;48.698;8.762;2024-03-02T00:10:09;95068.22;;;4.54;76.31
10869;BME280;62667;48.698;8.762;2024-03-02T00:12:36;95063.19;;;4.56;76.26
10869;BME280;62667;48.698;8.762;2024-03-02T00:15:05;95065.53;;;4.50;76.47
10869;BME280;62667;48.698;8.762;2024-03-02T00:17:33;95059.44;;;4.46;76.44
10869;BME280;62667;48.698;8.762;2024-03-02T00:20:00;95068.72;;;4.38;76.43
10869;BME280;62667;48.698;8.762;2024-03-02T00:22:28;95070.31;;;4.32;76.37
10869;BME280;62667;48.698;8.762;2024-03-02T00:24:55;95066.09;;;4.27;76.54
10869;BME280;62667;48.698;8.762;2024-03-02T00:27:23;95075.72;;;4.25;77.38
10869;BME280;62667;48.698;8.762;2024-03-02T00:29:50;95064.94;;;4.28;77.34
10869;BME280;62667;48.698;8.762;2024-03-02T00:32:17;95064.94;;;4.28;77.12
10869;BME280;62667;48.698;8.762;2024-03-02T00:34:44;95063.38;;;4.31;77.00
10869;BME280;62667;48.698;8.762;2024-03-02T00:37:10;95061.06;;;4.33;77.13
10869;BME280;62667;48.698;8.762;2024-03-02T00:39:38;95059.47;;;4.39;77.20
10869;BME280;62667;48.698;8.762;2024-03-02T00:42:05;95058.31;;;4.40;77.27
10869;BME280;62667;48.698;8.762;2024-03-02T00:44:33;95068.66;;;4.45;77.23
10869;BME280;62667;48.698;8.762;2024-03-02T00:47:01;95072.53;;;4.44;77.35
10869;BME280;62667;48.698;8.762;2024-03-02T00:49:28;95063.34;;;4.38;77.11
10869;BME280;62667;48.698;8.762;2024-03-02T00:51:55;95061.81;;;4.37;77.11
10869;BME280;62667;48.698;8.762;2024-03-02T00:54:23;95070.31;;;4.32;77.09
10869;BME280;62667;48.698;8.762;2024-03-02T00:56:51;95071.47;;;4.27;77.29
10869;BME280;62667;48.698;8.762;2024-03-02T00:59:20;95076.13;;;4.20;77.39
10869;BME280;62667;48.698;8.762;2024-03-02T01:01:48;95065.00;;;4.21;77.57
10869;BME280;62667;48.698;8.762;2024-03-02T01:04:15;95076.94;;;4.17;77.46
10869;BME280;62667;48.698;8.762;2024-03-02T01:06:42;95068.09;;;4.13;77.68
10869;BME280;62667;48.698;8.762;2024-03-02T01:09:09;95068.53;;;4.08;77.63
10869;BME280;62667;48.698;8.762;2024-03-02T01:11:37;95072.78;;;4.05;77.72
10869;BME280;62667;48.698;8.762;2024-03-02T01:14:04;95064.69;;;4.05;77.98
10869;BME280;62667;48.698;8.762;2024-03-02T01:16:31;95067.41;;;4.02;77.85
10869;BME280;62667;48.698;8.762;2024-03-02T01:18:59;95078.94;;;4.02;77.99
10869;BME280;62667;48.698;8.762;2024-03-02T01:21:26;95070.13;;;4.02;78.12
10869;BME280;62667;48.698;8.762;2024-03-02T01:23:52;95068.94;;;4.03;77.80
10869;BME280;62667;48.698;8.762;2024-03-02T01:26:19;95068.94;;;4.03;77.59
10869;BME280;62667;48.698;8.762;2024-03-02T01:28:45;95067.41;;;4.02;77.76
10869;BME280;62667;48.698;8.762;2024-03-02T01:31:12;95057.81;;;4.01;77.57
10869;BME280;62667;48.698;8.762;2024-03-02T01:33:38;95063.97;;;3.98;77.70
10869;BME280;62667;48.698;8.762;2024-03-02T01:36:06;95062.06;;;3.95;77.58
10869;BME280;62667;48.698;8.762;2024-03-02T01:38:33;95060.91;;;3.96;77.79
10869;BME280;62667;48.698;8.762;2024-03-02T01:41:00;95056.28;;;3.96;77.84
10869;BME280;62667;48.698;8.762;2024-03-02T01:43:27;95065.13;;;3.97;77.84
10869;BME280;62667;48.698;8.762;2024-03-02T01:45:54;95058.97;;;3.96;77.77
10869;BME280;62667;48.698;8.762;2024-03-02T01:48:22;95058.97;;;3.96;77.83
10869;BME280;62667;48.698;8.762;2024-03-02T01:50:48;95057.44;;;3.99;77.71
10869;BME280;62667;48.698;8.762;2024-03-02T01:53:16;95057.81;;;3.97;77.69
10869;BME280;62667;48.698;8.762;2024-03-02T01:55:43;95063.97;;;3.94;77.76
10869;BME280;62667;48.698;8.762;2024-03-02T01:58:09;95062.06;;;3.95;77.63
10869;BME280;62667;48.698;8.762;2024-03-02T02:00:36;95061.69;;;3.93;77.59
10869;BME280;62667;48.698;8.762;2024-03-02T02:03:03;95062.84;;;3.92;77.45
10869;BME280;62667;48.698;8.762;2024-03-02T02:05:30;95056.72;;;3.88;77.83
10869;BME280;62667;48.698;8.762;2024-03-02T02:07:57;95057.50;;;3.84;77.52
10869;BME280;62667;48.698;8.762;2024-03-02T02:10:26;95042.91;;;3.82;77.53
10869;BME280;62667;48.698;8.762;2024-03-02T02:12:52;95051.38;;;3.80;77.54
10869;BME280;62667;48.698;8.762;2024-03-02T02:15:24;95045.25;;;3.73;77.68
10869;BME280;62667;48.698;8.762;2024-03-02T02:17:50;95049.88;;;3.72;77.90
10869;BME280;62667;48.698;8.762;2024-03-02T02:20:17;95048.31;;;3.71;77.92
10869;BME280;62667;48.698;8.762;2024-03-02T02:22:58;95049.13;;;3.68;78.02
10869;BME280;62667;48.698;8.762;2024-03-02T02:25:26;95043.75;;;3.68;78.22
10869;BME280;62667;48.698;8.762;2024-03-02T02:27:52;95045.63;;;3.71;78.16
10869;BME280;62667;48.698;8.762;2024-03-02T02:30:20;95045.63;;;3.75;78.23
10869;BME280;62667;48.698;8.762;2024-03-02T02:32:47;95041.06;;;3.68;78.19
10869;BME280;62667;48.698;8.762;2024-03-02T02:35:14;95042.97;;;3.64;77.67
10869;BME280;62667;48.698;8.762;2024-03-02T02:37:41;95036.09;;;3.60;77.94
10869;BME280;62667;48.698;8.762;2024-03-02T02:40:10;95033.75;;;3.62;77.75
10869;BME280;62667;48.698;8.762;2024-03-02T02:42:36;95036.09;;;3.63;77.47
10869;BME280;62667;48.698;8.762;2024-03-02T02:45:04;95044.56;;;3.58;77.56
10869;BME280;62667;48.698;8.762;2024-03-02T02:47:31;95039.59;;;3.53;77.67
10869;BME280;62667;48.698;8.762;2024-03-02T02:50:00;95033.81;;;3.51;76.80
10869;BME280;62667;48.698;8.762;2024-03-02T02:52:31;95031.53;;;3.46;77.52
10869;BME280;62667;48.698;8.762;2024-03-02T02:54:58;95018.47;;;3.48;77.33
10869;BME280;62667;48.698;8.762;2024-03-02T02:57:26;95025.00;;;3.47;77.40
10869;BME280;62667;48.698;8.762;2024-03-02T02:59:53;95020.75;;;3.46;77.42
10869;BME280;62667;48.698;8.762;2024-03-02T03:02:19;95028.47;;;3.48;77.43
10869;BME280;62667;48.698;8.762;2024-03-02T03:04:46;95027.28;;;3.49;77.59
10869;BME280;62667;48.698;8.762;2024-03-02T03:07:12;95027.28;;;3.52;77.75
10869;BME280;62667;48.698;8.762;2024-03-02T03:09:39;95022.28;;;3.54;77.98
10869;BME280;62667;48.698;8.762;2024-03-02T03:12:06;95022.63;;;3.56;77.51
10869;BME280;62667;48.698;8.762;2024-03-02T03:14:34;95030.47;;;3.19;76.77
10869;BME280;62667;48.698;8.762;2024-03-02T03:17:00;95020.53;;;3.02;76.88
10869;BME280;62667;48.698;8.762;2024-03-02T03:19:27;95027.84;;;3.01;76.94
10869;BME280;62667;48.698;8.762;2024-03-02T03:21:53;95020.13;;;3.03;77.35
10869;BME280;62667;48.698;8.762;2024-03-02T03:24:20;95027.03;;;3.08;77.45
10869;BME280;62667;48.698;8.762;2024-03-02T03:26:46;95026.25;;;3.11;77.43
10869;BME280;62667;48.698;8.762;2024-03-02T03:29:13;95025.88;;;3.16;77.21
10869;BME280;62667;48.698;8.762;2024-03-02T03:31:41;95022.41;;;3.19;77.50
10869;BME280;62667;48.698;8.762;2024-03-02T03:34:08;95031.22;;;3.23;77.65
10869;BME280;62667;48.698;8.762;2024-03-02T03:36:34;95029.31;;;3.20;77.40
10869;BME280;62667;48.698;8.762;2024-03-02T03:39:01;95031.63;;;3.18;77.34
10869;BME280;62667;48.698;8.762;2024-03-02T03:41:28;95021.28;;;3.09;77.20
10869;BME280;62667;48.698;8.762;2024-03-02T03:43:55;95018.97;;;3.08;77.46
10869;BME280;62667;48.698;8.762;2024-03-02T03:46:21;95019.78;;;3.05;77.13
10869;BME280;62667;48.698;8.762;2024-03-02T03:48:49;95030.94;;;2.86;76.51
10869;BME280;62667;48.698;8.762;2024-03-02T03:51:16;95033.28;;;2.59;77.08
10869;BME280;62667;48.698;8.762;2024-03-02T03:53:42;95032.88;;;2.61;77.13
10869;BME280;62667;48.698;8.762;2024-03-02T03:56:09;95025.19;;;2.63;77.31
10869;BME280;62667;48.698;8.762;2024-03-02T03:58:36;95022.13;;;2.61;77.61
10869;BME280;62667;48.698;8.762;2024-03-02T04:01:03;95024.03;;;2.67;77.54
10869;BME280;62667;48.698;8.762;2024-03-02T04:03:29;95027.88;;;2.70;77.50
10869;BME280;62667;48.698;8.762;2024-03-02T04:05:58;95043.63;;;2.64;77.54
10869;BME280;62667;48.698;8.762;2024-03-02T04:08:24;95033.28;;;2.59;77.72
10869;BME280;62667;48.698;8.762;2024-03-02T04:10:51;95030.19;;;2.53;77.85
10869;BME280;62667;48.698;8.762;2024-03-02T04:13:17;95033.25;;;2.63;77.41
10869;BME280;62667;48.698;8.762;2024-03-02T04:15:44;95035.16;;;2.73;77.86
10869;BME280;62667;48.698;8.762;2024-03-02T04:18:10;95027.09;;;2.80;77.95
10869;BME280;62667;48.698;8.762;2024-03-02T04:20:37;95026.72;;;2.78;77.70
10869;BME280;62667;48.698;8.762;2024-03-02T04:23:05;95024.81;;;2.82;77.82
10869;BME280;62667;48.698;8.762;2024-03-02T04:25:33;95031.31;;;2.81;77.57
10869;BME280;62667;48.698;8.762;2024-03-02T04:27:59;95037.84;;;2.73;77.81
10869;BME280;62667;48.698;8.762;2024-03-02T04:30:26;95039.41;;;2.67;77.65
10869;BME280;62667;48.698;8.762;2024-03-02T04:32:52;95043.63;;;2.68;78.10
10869;BME280;62667;48.698;8.762;2024-03-02T04:35:19;95037.09;;;2.69;78.35
10869;BME280;62667;48.698;8.762;2024-03-02T04:37:46;95042.47;;;2.69;78.07
10869;BME280;62667;48.698;8.762;2024-03-02T04:40:14;95037.84;;;2.87;78.88
10869;BME280;62667;48.698;8.762;2024-03-02T04:42:41;95043.22;;;2.97;78.44
10869;BME280;62667;48.698;8.762;2024-03-02T04:45:08;95030.91;;;2.96;78.89
10869;BME280;62667;48.698;8.762;2024-03-02T04:47:35;95027.81;;;2.98;79.03
10869;BME280;62667;48.698;8.762;2024-03-02T04:50:02;95035.16;;;2.97;79.08
10869;BME280;62667;48.698;8.762;2024-03-02T04:52:28;95041.66;;;2.96;78.84
10869;BME280;62667;48.698;8.762;2024-03-02T04:54:55;95037.44;;;2.99;78.68
10869;BME280;62667;48.698;8.762;2024-03-02T04:57:46;95041.66;;;2.96;78.92
10869;BME280;62667;48.698;8.762;2024-03-02T05:00:13;95049.31;;;2.98;79.00
10869;BME280;62667;48.698;8.762;2024-03-02T05:02:40;95047.81;;;2.97;78.86
10869;BME280;62667;48.698;8.762;2024-03-02T05:05:06;95047.81;;;2.97;78.88
10869;BME280;62667;48.698;8.762;2024-03-02T05:07:33;95050.13;;;2.95;78.99
10869;BME280;62667;48.698;8.762;2024-03-02T05:10:00;95053.94;;;2.94;79.16
10869;BME280;62667;48.698;8.762;2024-03-02T05:12:26;95049.75;;;2.89;78.97
10869;BME280;62667;48.698;8.762;2024-03-02T05:15:16;95049.38;;;2.84;79.30
10869;BME280;62667;48.698;8.762;2024-03-02T05:17:43;95062.41;;;2.92;79.17
10869;BME280;62667;48.698;8.762;2024-03-02T05:20:10;95062.44;;;2.82;79.26
10869;BME280;62667;48.698;8.762;2024-03-02T05:22:37;95057.44;;;2.77;79.53
10869;BME280;62667;48.698;8.762;2024-03-02T05:25:05;95061.28;;;2.69;79.95
10869;BME280;62667;48.698;8.762;2024-03-02T05:27:32;95066.28;;;2.67;79.80
10869;BME280;62667;48.698;8.762;2024-03-02T05:29:59;95063.97;;;2.62;80.09
10869;BME280;62667;48.698;8.762;2024-03-02T05:32:27;95060.13;;;2.63;80.08
10869;BME280;62667;48.698;8.762;2024-03-02T05:34:53;95066.66;;;2.62;79.44
10869;BME280;62667;48.698;8.762;2024-03-02T05:37:20;95067.78;;;2.61;79.79
10869;BME280;62667;48.698;8.762;2024-03-02T05:39:46;95062.03;;;2.66;79.85
10869;BME280;62667;48.698;8.762;2024-03-02T05:42:13;95060.88;;;2.70;79.55
10869;BME280;62667;48.698;8.762;2024-03-02T05:44:40;95063.19;;;2.72;79.72
10869;BME280;62667;48.698;8.762;2024-03-02T05:47:06;95062.03;;;2.73;79.88
10869;BME280;62667;48.698;8.762;2024-03-02T05:49:35;95062.41;;;2.68;79.43
10869;BME280;62667;48.698;8.762;2024-03-02T05:52:02;95056.28;;;2.71;79.66
10869;BME280;62667;48.698;8.762;2024-03-02T05:54:29;95063.94;;;2.72;80.01
10869;BME280;62667;48.698;8.762;2024-03-02T05:56:55;95057.03;;;2.75;79.63
10869;BME280;62667;48.698;8.762;2024-03-02T05:59:22;95059.34;;;2.73;79.42
10869;BME280;62667;48.698;8.762;2024-03-02T06:01:48;95059.38;;;2.69;79.65
10869;BME280;62667;48.698;8.762;2024-03-02T06:04:16;95070.09;;;2.69;79.45
10869;BME280;62667;48.698;8.762;2024-03-02T06:06:44;95068.97;;;2.67;79.50
10869;BME280;62667;48.698;8.762;2024-03-02T06:09:11;95069.72;;;2.64;79.36
10869;BME280;62667;48.698;8.762;2024-03-02T06:11:39;95070.88;;;2.66;79.08
10869;BME280;62667;48.698;8.762;2024-03-02T06:14:06;95072.03;;;2.69;79.28
10869;BME280;62667;48.698;8.762;2024-03-02T06:16:34;95075.47;;;2.73;79.29
10869;BME280;62667;48.698;8.762;2024-03-02T06:19:01;95073.94;;;2.79;79.24
10869;BME280;62667;48.698;8.762;2024-03-02T06:21:28;95076.63;;;2.79;78.93
10869;BME280;62667;48.698;8.762;2024-03-02T06:23:56;95077.75;;;2.78;79.22
10869;BME280;62667;48.698;8.762;2024-03-02T06:26:22;95070.09;;;2.80;79.28
10869;BME280;62667;48.698;8.762;2024-03-02T06:28:49;95068.53;;;2.86;78.40
10869;BME280;62667;48.698;8.762;2024-03-02T06:31:16;95074.69;;;2.90;78.75
10869;BME280;62667;48.698;8.762;2024-03-02T06:33:42;95072.38;;;2.92;78.46
10869;BME280;62667;48.698;8.762;2024-03-02T06:36:09;95076.22;;;2.91;78.27
10869;BME280;62667;48.698;8.762;2024-03-02T06:38:37;95077.38;;;2.93;78.33
10869;BME280;62667;48.698;8.762;2024-03-02T06:41:06;95078.91;;;2.91;78.49
10869;BME280;62667;48.698;8.762;2024-03-02T06:43:33;95072.38;;;2.95;78.03
10869;BME280;62667;48.698;8.762;2024-03-02T06:46:00;95079.69;;;2.95;77.77
10869;BME280;62667;48.698;8.762;2024-03-02T06:48:26;95080.06;;;2.97;77.73
10869;BME280;62667;48.698;8.762;2024-03-02T06:50:55;95078.13;;;3.01;77.65
10869;BME280;62667;48.698;8.762;2024-03-02T06:53:22;95080.03;;;3.00;77.47
10869;BME280;62667;48.698;8.762;2024-03-02T06:55:49;95083.91;;;2.99;77.27
10869;BME280;62667;48.698;8.762;2024-03-02T06:58:17;95088.09;;;3.00;77.08
10869;BME280;62667;48.698;8.762;2024-03-02T07:00:43;95087.72;;;2.98;76.95
10869;BME280;62667;48.698;8.762;2024-03-02T07:03:10;95080.06;;;2.90;76.93
10869;BME280;62667;48.698;8.762;2024-03-02T07:05:37;95081.22;;;2.89;76.70
10869;BME280;62667;48.698;8.762;2024-03-02T07:08:05;95090.03;;;2.96;76.94
10869;BME280;62667;48.698;8.762;2024-03-02T07:10:31;95096.19;;;3.04;76.95
10869;BME280;62667;48.698;8.762;2024-03-02T07:12:58;95101.94;;;3.06;76.66
10869;BME280;62667;48.698;8.762;2024-03-02T07:15:26;95093.09;;;3.09;76.76
10869;BME280;62667;48.698;8.762;2024-03-02T07:18:09;95093.44;;;3.18;76.73
10869;BME280;62667;48.698;8.762;2024-03-02T07:20:36;95090.75;;;3.29;76.45
10869;BME280;62667;48.698;8.762;2024-03-02T07:23:04;95093.06;;;3.27;76.75
10869;BME280;62667;48.698;8.762;2024-03-02T07:25:31;95093.03;;;3.34;76.69
10869;BME280;62667;48.698;8.762;2024-03-02T07:27:57;95096.50;;;3.38;76.30
10869;BME280;62667;48.698;8.762;2024-03-02T07:30:25;95086.88;;;3.40;76.19
10869;BME280;62667;48.698;8.762;2024-03-02T07:32:52;95089.56;;;3.47;76.26
10869;BME280;62667;48.698;8.762;2024-03-02T07:35:19;95084.16;;;3.54;76.17
10869;BME280;62667;48.698;8.762;2024-03-02T07:37:47;95086.44;;;3.59;75.57
10869;BME280;62667;48.698;8.762;2024-03-02T07:40:13;95084.47;;;3.70;76.02
10869;BME280;62667;48.698;8.762;2024-03-02T07:42:40;95091.34;;;3.82;75.68
10869;BME280;62667;48.698;8.762;2024-03-02T07:45:07;95089.38;;;3.90;75.37
10869;BME280;62667;48.698;8.762;2024-03-02T07:47:35;95087.41;;;4.04;75.08
10869;BME280;62667;48.698;8.762;2024-03-02T07:50:02;95082.34;;;4.17;74.92
10869;BME280;62667;48.698;8.762;2024-03-02T07:52:31;95074.94;;;4.28;74.57
10869;BME280;62667;48.698;8.762;2024-03-02T07:54:58;95083.69;;;4.42;74.05
10869;BME280;62667;48.698;8.762;2024-03-02T07:57:25;95090.22;;;4.45;73.54
10869;BME280;62667;48.698;8.762;2024-03-02T07:59:52;95097.25;;;4.32;73.98
10869;BME280;62667;48.698;8.762;2024-03-02T08:02:19;95079.19;;;4.29;74.01
10869;BME280;62667;48.698;8.762;2024-03-02T08:04:48;95093.31;;;4.47;74.11
10869;BME280;62667;48.698;8.762;2024-03-02T08:07:15;95087.00;;;4.64;73.68
10869;BME280;62667;48.698;8.762;2024-03-02T08:09:42;95090.34;;;4.79;73.46
10869;BME280;62667;48.698;8.762;2024-03-02T08:12:09;95098.72;;;4.91;72.90
10869;BME280;62667;48.698;8.762;2024-03-02T08:14:36;95099.09;;;4.93;73.04
10869;BME280;62667;48.698;8.762;2024-03-02T08:17:03;95092.97;;;4.93;72.78
10869;BME280;62667;48.698;8.762;2024-03-02T08:19:35;95086.69;;;5.03;72.32
10869;BME280;62667;48.698;8.762;2024-03-02T08:22:03;95092.84;;;5.03;73.37
10869;BME280;62667;48.698;8.762;2024-03-02T08:24:30;95088.81;;;5.22;72.77
10869;BME280;62667;48.698;8.762;2024-03-02T08:26:57;95079.41;;;5.41;72.27
10869;BME280;62667;48.698;8.762;2024-03-02T08:29:24;95082.25;;;5.60;71.94
10869;BME280;62667;48.698;8.762;2024-03-02T08:31:50;95096.16;;;5.59;71.94
10869;BME280;62667;48.698;8.762;2024-03-02T08:34:17;95092.53;;;5.72;71.75
10869;BME280;62667;48.698;8.762;2024-03-02T08:36:44;95086.78;;;5.70;70.71
10869;BME280;62667;48.698;8.762;2024-03-02T08:39:12;95090.16;;;5.78;71.90
10869;BME280;62667;48.698;8.762;2024-03-02T08:41:41;95083.16;;;5.84;71.81
10869;BME280;62667;48.698;8.762;2024-03-02T08:44:08;95083.44;;;5.93;71.05
10869;BME280;62667;48.698;8.762;2024-03-02T08:46:35;95074.19;;;5.94;70.71
10869;BME280;62667;48.698;8.762;2024-03-02T08:49:01;95069.03;;;6.03;71.31
10869;BME280;62667;48.698;8.762;2024-03-02T08:51:28;95069.66;;;6.14;71.08
10869;BME280;62667;48.698;8.762;2024-03-02T08:53:54;95065.09;;;6.38;70.22
10869;BME280;62667;48.698;8.762;2024-03-02T08:56:23;95055.59;;;6.53;69.62
10869;BME280;62667;48.698;8.762;2024-03-02T08:58:49;95061.44;;;6.75;69.43
10869;BME280;62667;48.698;8.762;2024-03-02T09:01:17;95068.16;;;6.90;68.61
10869;BME280;62667;48.698;8.762;2024-03-02T09:03:45;95066.22;;;7.14;68.21
10869;BME280;62667;48.698;8.762;2024-03-02T09:06:11;95065.09;;;7.11;67.80
10869;BME280;62667;48.698;8.762;2024-03-02T09:08:39;95057.84;;;7.05;67.61
10869;BME280;62667;48.698;8.762;2024-03-02T09:11:06;95058.22;;;7.07;67.77
10869;BME280;62667;48.698;8.762;2024-03-02T09:13:34;95062.69;;;7.17;68.23
10869;BME280;62667;48.698;8.762;2024-03-02T09:16:01;95061.59;;;7.34;67.29
10869;BME280;62667;48.698;8.762;2024-03-02T09:18:28;95060.34;;;7.38;67.23
10869;BME280;62667;48.698;8.762;2024-03-02T09:20:55;95059.66;;;7.54;66.52
10869;BME280;62667;48.698;8.762;2024-03-02T09:23:21;95062.38;;;7.54;65.44
10869;BME280;62667;48.698;8.762;2024-03-02T09:25:48;95061.47;;;7.60;66.30
10869;BME280;62667;48.698;8.762;2024-03-02T09:28:15;95060.97;;;7.65;65.82
10869;BME280;62667;48.698;8.762;2024-03-02T09:30:43;95057.41;;;7.72;66.02
10869;BME280;62667;48.698;8.762;2024-03-02T09:33:10;95060.50;;;7.71;65.19
10869;BME280;62667;48.698;8.762;2024-03-02T09:35:36;95051.50;;;7.77;65.18
10869;BME280;62667;48.698;8.762;2024-03-02T09:38:03;95049.09;;;7.99;65.04
10869;BME280;62667;48.698;8.762;2024-03-02T09:40:30;95052.69;;;8.12;64.43
10869;BME280;62667;48.698;8.762;2024-03-02T09:42:57;95048.91;;;8.45;63.96
10869;BME280;62667;48.698;8.762;2024-03-02T09:45:24;95050.34;;;8.50;63.16
10869;BME280;62667;48.698;8.762;2024-03-02T09:47:53;95047.66;;;8.66;64.31
10869;BME280;62667;48.698;8.762;2024-03-02T09:50:20;95042.38;;;8.91;62.89
10869;BME280;62667;48.698;8.762;2024-03-02T09:52:48;95033.28;;;8.98;62.86
10869;BME280;62667;48.698;8.762;2024-03-02T09:55:16;95031.53;;;9.07;61.53
10869;BME280;62667;48.698;8.762;2024-03-02T09:57:45;95029.72;;;9.17;60.28
10869;BME280;62667;48.698;8.762;2024-03-02T10:00:12;95037.75;;;9.36;60.26
10869;BME280;62667;48.698;8.762;2024-03-02T10:02:40;95027.97;;;9.39;59.72
10869;BME280;62667;48.698;8.762;2024-03-02T10:05:09;95038.03;;;9.54;59.73
10869;BME280;62667;48.698;8.762;2024-03-02T10:07:35;95036.91;;;9.68;57.97
10869;BME280;62667;48.698;8.762;2024-03-02T10:10:12;95030.16;;;9.73;57.65
10869;BME280;62667;48.698;8.762;2024-03-02T10:12:39;95031.38;;;9.84;57.49
10869;BME280;62667;48.698;8.762;2024-03-02T10:15:07;95029.66;;;9.90;55.86
10869;BME280;62667;48.698;8.762;2024-03-02T10:17:35;95019.13;;;9.92;55.77
10869;BME280;62667;48.698;8.762;2024-03-02T10:20:22;95015.13;;;10.09;55.95
10869;BME280;62667;48.698;8.762;2024-03-02T10:22:49;95019.50;;;10.20;56.31
10869;BME280;62667;48.698;8.762;2024-03-02T10:25:28;95013.44;;;10.15;55.99
10869;BME280;62667;48.698;8.762;2024-03-02T10:27:57;95005.28;;;10.28;55.82
10869;BME280;62667;48.698;8.762;2024-03-02T10:30:24;95011.25;;;10.61;54.66
10869;BME280;62667;48.698;8.762;2024-03-02T10:32:51;95013.41;;;10.66;54.51
10869;BME280;62667;48.698;8.762;2024-03-02T10:35:20;95013.84;;;10.77;53.46
10869;BME280;62667;48.698;8.762;2024-03-02T10:37:47;95009.16;;;10.90;53.75
10869;BME280;62667;48.698;8.762;2024-03-02T10:40:14;95013.88;;;11.11;53.85
10869;BME280;62667;48.698;8.762;2024-03-02T10:42:41;95010.69;;;11.25;54.48
10869;BME280;62667;48.698;8.762;2024-03-02T10:45:09;94998.28;;;11.24;52.34
10869;BME280;62667;48.698;8.762;2024-03-02T10:47:37;95005.66;;;11.24;52.42
10869;BME280;62667;48.698;8.762;2024-03-02T10:50:05;95009.31;;;11.77;52.74
10869;BME280;62667;48.698;8.762;2024-03-02T10:52:35;95011.00;;;11.62;51.58
10869;BME280;62667;48.698;8.762;2024-03-02T10:55:01;95002.75;;;11.53;51.17
10869;BME280;62667;48.698;8.762;2024-03-02T10:57:35;94995.53;;;11.59;51.74
10869;BME280;62667;48.698;8.762;2024-03-02T11:00:07;94991.34;;;11.88;51.20
10869;BME280;62667;48.698;8.762;2024-03-02T11:02:42;94990.50;;;12.00;51.72
10869;BME280;62667;48.698;8.762;2024-03-02T11:05:17;94985.63;;;11.95;51.43
10869;BME280;62667;48.698;8.762;2024-03-02T11:07:47;94990.78;;;12.24;50.69
10869;BME280;62667;48.698;8.762;2024-03-02T11:10:14;94981.56;;;12.71;50.09
10869;BME280;62667;48.698;8.762;2024-03-02T11:12:49;94968.56;;;12.93;49.59
10869;BME280;62667;48.698;8.762;2024-03-02T11:15:18;94965.16;;;13.19;51.10
10869;BME280;62667;48.698;8.762;2024-03-02T11:17:46;94969.22;;;13.15;47.96
10869;BME280;62667;48.698;8.762;2024-03-02T11:20:14;94965.84;;;13.02;49.98
10869;BME280;62667;48.698;8.762;2024-03-02T11:22:50;94955.59;;;13.24;52.84
10869;BME280;62667;48.698;8.762;2024-03-02T11:25:23;94954.78;;;13.78;48.75
10869;BME280;62667;48.698;8.762;2024-03-02T11:28:04;94946.38;;;14.00;46.96
10869;BME280;62667;48.698;8.762;2024-03-02T11:30:50;94956.63;;;13.36;45.33
10869;BME280;62667;48.698;8.762;2024-03-02T11:33:24;94959.22;;;13.21;45.53
10869;BME280;62667;48.698;8.762;2024-03-02T11:35:56;94943.41;;;13.25;46.39
10869;BME280;62667;48.698;8.762;2024-03-02T11:38:27;94948.59;;;13.41;46.54
10869;BME280;62667;48.698;8.762;2024-03-02T11:40:59;94943.13;;;13.32;46.36
10869;BME280;62667;48.698;8.762;2024-03-02T11:43:27;94933.41;;;13.49;44.72
10869;BME280;62667;48.698;8.762;2024-03-02T11:45:58;94931.25;;;13.62;44.73
10869;BME280;62667;48.698;8.762;2024-03-02T11:48:25;94923.63;;;13.75;43.69
10869;BME280;62667;48.698;8.762;2024-03-02T11:50:52;94928.06;;;13.64;43.98
10869;BME280;62667;48.698;8.762;2024-03-02T11:53:20;94929.38;;;13.86;46.54
10869;BME280;62667;48.698;8.762;2024-03-02T11:55:49;94926.78;;;14.43;46.10
10869;BME280;62667;48.698;8.762;2024-03-02T11:58:16;94915.66;;;14.70;45.60
10869;BME280;62667;48.698;8.762;2024-03-02T12:00:43;94913.97;;;14.96;43.59
10869;BME280;62667;48.698;8.762;2024-03-02T12:03:13;94904.53;;;15.36;42.39
10869;BME280;62667;48.698;8.762;2024-03-02T12:05:40;94906.97;;;14.95;40.22
10869;BME280;62667;48.698;8.762;2024-03-02T12:08:07;94903.31;;;14.75;41.80
10869;BME280;62667;48.698;8.762;2024-03-02T12:10:35;94902.13;;;15.14;42.14
10869;BME280;62667;48.698;8.762;2024-03-02T12:13:05;94901.38;;;15.66;40.67
10869;BME280;62667;48.698;8.762;2024-03-02T12:15:33;94897.78;;;15.90;41.27
10869;BME280;62667;48.698;8.762;2024-03-02T12:18:04;94905.78;;;16.22;38.09
10869;BME280;62667;48.698;8.762;2024-03-02T12:20:32;94905.03;;;16.36;39.86
10869;BME280;62667;48.698;8.762;2024-03-02T12:23:00;94897.78;;;16.04;38.69
10869;BME280;62667;48.698;8.762;2024-03-02T12:25:28;94886.03;;;15.89;39.06
10869;BME280;62667;48.698;8.762;2024-03-02T12:27:57;94878.19;;;16.81;37.70
10869;BME280;62667;48.698;8.762;2024-03-02T12:30:27;94867.59;;;17.14;37.07
10869;BME280;62667;48.698;8.762;2024-03-02T12:32:55;94871.25;;;17.51;35.33
10869;BME280;62667;48.698;8.762;2024-03-02T12:35:24;94864.66;;;17.63;34.63
10869;BME280;62667;48.698;8.762;2024-03-02T12:37:52;94862.59;;;17.84;34.66
10869;BME280;62667;48.698;8.762;2024-03-02T12:40:20;94875.63;;;16.42;37.03
10869;BME280;62667;48.698;8.762;2024-03-02T12:42:48;94878.38;;;15.49;40.16
10869;BME280;62667;48.698;8.762;2024-03-02T12:45:15;94880.38;;;15.49;39.74
10869;BME280;62667;48.698;8.762;2024-03-02T12:47:50;94878.84;;;16.06;39.00
10869;BME280;62667;48.698;8.762;2024-03-02T12:50:18;94871.50;;;16.32;38.28
10869;BME280;62667;48.698;8.762;2024-03-02T12:52:51;94864.09;;;16.73;38.11
10869;BME280;62667;48.698;8.762;2024-03-02T12:55:17;94859.78;;;17.07;36.89
10869;BME280;62667;48.698;8.762;2024-03-02T12:57:44;94860.47;;;16.82;37.62
10869;BME280;62667;48.698;8.762;2024-03-02T13:00:11;94871.78;;;15.85;38.45
10869;BME280;62667;48.698;8.762;2024-03-02T13:02:40;94861.44;;;15.95;38.64
10869;BME280;62667;48.698;8.762;2024-03-02T13:05:09;94848.50;;;15.80;39.73
10869;BME280;62667;48.698;8.762;2024-03-02T13:07:36;94862.44;;;16.26;39.12
10869;BME280;62667;48.698;8.762;2024-03-02T13:10:03;94859.97;;;16.28;38.99